Time;durP1;ratioP1;P1;durP2;ratioP2;P2;SDS_P1;SDS_P2;PMS_P1;PMS_P2;Temp;Humidity;BMP_temperature;BMP_pressure;BME280_temperature;BME280_humidity;BME280_pressure;Samples;Min_cycle;Max_cycle;Signal;HPM_P1;HPM_P2
2023/03/20 00:02:05;;;;;;;1.60;1.50;;;18.20;50.90;;;;;;4997114;28;20611;-86
2023/03/20 00:04:33;;;;;;;2.00;1.60;;;18.20;50.90;;;;;;4981107;28;20247;-86
2023/03/20 00:06:59;;;;;;;1.50;1.40;;;18.10;50.90;;;;;;4981154;28;20159;-86
2023/03/20 00:09:25;;;;;;;1.55;1.42;;;18.20;51.00;;;;;;4980459;28;20582;-86
2023/03/20 00:11:52;;;;;;;2.03;1.60;;;18.20;51.00;;;;;;4996773;28;20186;-86
2023/03/20 00:14:19;;;;;;;1.60;1.50;;;18.20;51.00;;;;;;4980969;28;20156;-86
2023/03/20 00:16:46;;;;;;;1.88;1.63;;;18.10;51.00;;;;;;4964511;28;20201;-86
2023/03/20 00:19:17;;;;;;;1.60;1.50;;;18.10;51.10;;;;;;4980771;28;20160;-86
2023/03/20 00:21:46;;;;;;;2.13;1.70;;;18.10;51.20;;;;;;4964790;28;20202;-86
2023/03/20 00:24:13;;;;;;;1.60;1.50;;;18.10;51.00;;;;;;4964632;28;20525;-86
2023/03/20 00:26:38;;;;;;;1.85;1.60;;;18.10;51.10;;;;;;4980496;28;20217;-86
2023/03/20 00:29:04;;;;;;;1.60;1.50;;;18.10;51.10;;;;;;4980607;28;20258;-86
2023/03/20 00:31:32;;;;;;;1.90;1.70;;;18.10;51.10;;;;;;4964141;28;20213;-86
2023/03/20 00:34:00;;;;;;;1.70;1.60;;;18.10;51.20;;;;;;4964348;28;20244;-86
2023/03/20 00:36:30;;;;;;;1.45;1.35;;;18.20;51.10;;;;;;4996317;28;20159;-86
2023/03/20 00:38:56;;;;;;;1.90;1.60;;;18.10;51.10;;;;;;4980599;28;20261;-86
2023/03/20 00:41:28;;;;;;;1.80;1.70;;;18.10;51.10;;;;;;4996492;28;20278;-86
2023/03/20 00:44:17;;;;;;;1.80;1.60;;;18.10;51.20;;;;;;4964235;28;20171;-86
2023/03/20 00:46:43;;;;;;;1.52;1.42;;;18.10;51.20;;;;;;5013667;28;20148;-86
2023/03/20 00:49:10;;;;;;;2.05;1.42;;;18.10;52.00;;;;;;4980013;28;20163;-86
2023/03/20 00:51:37;;;;;;;1.65;1.50;;;18.00;51.10;;;;;;4996427;28;20164;-86
2023/03/20 00:54:11;;;;;;;1.60;1.40;;;18.00;51.30;;;;;;4979970;28;20171;-86
2023/03/20 00:56:39;;;;;;;2.00;1.88;;;18.00;51.30;;;;;;4981032;28;20167;-86
2023/03/20 00:59:06;;;;;;;1.88;1.50;;;18.00;51.30;;;;;;4964339;28;20163;-86
2023/03/20 01:01:31;;;;;;;1.58;1.45;;;18.10;51.40;;;;;;4964267;28;20191;-86
2023/03/20 01:03:59;;;;;;;1.80;1.70;;;18.10;51.30;;;;;;4979989;28;20156;-86
2023/03/20 01:06:24;;;;;;;1.60;1.50;;;18.10;51.40;;;;;;4980012;28;20634;-86
2023/03/20 01:08:50;;;;;;;1.67;1.58;;;18.00;51.30;;;;;;4996032;28;20227;-86
2023/03/20 01:11:20;;;;;;;1.60;1.50;;;18.10;51.40;;;;;;4979898;28;20677;-86
2023/03/20 01:13:47;;;;;;;1.52;1.42;;;18.00;51.40;;;;;;4964543;28;20648;-84
2023/03/20 01:16:19;;;;;;;2.17;1.58;;;18.10;51.40;;;;;;4980033;28;20262;-84
2023/03/20 01:18:45;;;;;;;1.80;1.70;;;18.00;51.40;;;;;;4980159;28;20239;-85
2023/03/20 01:21:11;;;;;;;1.60;1.50;;;18.00;51.40;;;;;;4979785;28;20211;-85
2023/03/20 01:23:36;;;;;;;1.80;1.42;;;18.00;51.40;;;;;;4982875;28;20155;-85
2023/03/20 01:26:03;;;;;;;1.58;1.42;;;18.00;51.50;;;;;;4983709;28;20169;-85
2023/03/20 01:28:29;;;;;;;1.55;1.45;;;18.00;51.40;;;;;;4967359;28;20585;-85
2023/03/20 01:30:55;;;;;;;1.70;1.60;;;18.00;51.40;;;;;;4983380;28;20163;-85
2023/03/20 01:33:22;;;;;;;1.40;1.30;;;18.00;51.40;;;;;;4983282;28;20156;-86
2023/03/20 01:35:48;;;;;;;1.70;1.60;;;18.00;51.50;;;;;;4967502;28;20218;-85
2023/03/20 01:38:19;;;;;;;2.17;1.67;;;18.00;51.40;;;;;;4967137;28;20313;-85
2023/03/20 01:40:53;;;;;;;2.08;1.88;;;18.00;51.40;;;;;;4968047;28;20203;-84
2023/03/20 01:43:20;;;;;;;1.77;1.67;;;18.00;51.50;;;;;;4982866;28;20526;-84
2023/03/20 01:46:16;;;;;;;1.58;1.48;;;18.00;51.40;;;;;;4967215;28;20226;-84
2023/03/20 01:49:04;;;;;;;2.08;1.58;;;18.00;51.50;;;;;;4999035;28;20233;-85
2023/03/20 01:51:31;;;;;;;1.73;1.63;;;18.00;51.40;;;;;;4967641;28;20659;-85
2023/03/20 01:54:06;;;;;;;1.63;1.52;;;18.00;51.50;;;;;;4982785;28;20175;-85
2023/03/20 01:56:37;;;;;;;1.70;1.42;;;18.00;51.40;;;;;;4967468;28;20187;-85
2023/03/20 01:59:06;;;;;;;1.50;1.40;;;18.00;51.60;;;;;;4999449;28;20159;-85
2023/03/20 02:01:35;;;;;;;1.70;1.60;;;18.00;51.60;;;;;;4967775;28;20206;-85
2023/03/20 02:04:01;;;;;;;1.50;1.40;;;17.90;51.50;;;;;;4999610;28;20158;-85
2023/03/20 02:06:28;;;;;;;3.80;1.70;;;18.00;51.50;;;;;;4982589;28;20159;-85
2023/03/20 02:08:53;;;;;;;1.50;1.40;;;18.00;51.50;;;;;;4982912;28;20231;-85
2023/03/20 02:11:22;;;;;;;1.63;1.52;;;18.00;51.60;;;;;;4982833;28;20172;-85
2023/03/20 02:13:53;;;;;;;1.60;1.48;;;18.00;51.60;;;;;;4982890;28;20238;-85
2023/03/20 02:16:19;;;;;;;1.40;1.27;;;17.90;51.60;;;;;;4983036;28;20678;-84
2023/03/20 02:18:47;;;;;;;1.65;1.55;;;17.90;51.60;;;;;;4982363;28;20220;-85
2023/03/20 02:21:37;;;;;;;1.80;1.67;;;17.90;51.60;;;;;;4966489;28;20290;-84
2023/03/20 02:24:37;;;;;;;1.35;1.25;;;17.90;51.50;;;;;;5000341;28;20155;-84
2023/03/20 02:27:23;;;;;;;1.73;1.63;;;17.90;51.60;;;;;;4998460;28;20159;-85
2023/03/20 02:30:23;;;;;;;1.52;1.42;;;17.90;51.50;;;;;;4998376;28;20618;-85
2023/03/20 02:33:27;;;;;;;1.58;1.48;;;18.00;51.50;;;;;;4985540;28;20168;-85
2023/03/20 02:36:27;;;;;;;1.67;1.58;;;17.90;51.50;;;;;;5015746;28;20213;-85
2023/03/20 02:39:18;;;;;;;1.60;1.50;;;17.90;51.60;;;;;;5015906;28;20681;-85
2023/03/20 02:41:53;;;;;;;1.83;1.70;;;17.90;51.50;;;;;;4981975;28;20595;-85
2023/03/20 02:44:45;;;;;;;1.70;1.60;;;17.90;51.50;;;;;;4966700;28;20250;-85
2023/03/20 02:47:18;;;;;;;1.70;1.60;;;17.90;51.60;;;;;;4983173;28;20697;-85
2023/03/20 02:50:03;;;;;;;1.48;1.38;;;17.90;51.50;;;;;;4998982;28;20155;-85
2023/03/20 02:52:43;;;;;;;1.60;1.50;;;17.90;51.50;;;;;;4982041;28;20168;-85
2023/03/20 02:55:34;;;;;;;1.58;1.48;;;17.90;51.60;;;;;;4990982;28;20160;-85
2023/03/20 02:58:20;;;;;;;1.35;1.25;;;17.90;51.50;;;;;;4981691;28;20218;-85
2023/03/20 03:00:51;;;;;;;1.60;1.50;;;17.90;51.60;;;;;;4998450;28;20635;-85
2023/03/20 03:03:21;;;;;;;1.80;1.70;;;17.90;51.50;;;;;;4982062;28;20645;-85
2023/03/20 03:05:53;;;;;;;1.60;1.50;;;17.90;51.50;;;;;;4966240;28;20522;-84
2023/03/20 03:08:21;;;;;;;1.50;1.40;;;17.90;51.50;;;;;;4965501;28;20167;-85
2023/03/20 03:10:58;;;;;;;1.58;1.48;;;17.90;51.50;;;;;;4966339;28;20171;-85
2023/03/20 03:13:27;;;;;;;1.50;1.40;;;18.00;51.60;;;;;;4981918;28;20163;-85
2023/03/20 03:15:55;;;;;;;1.40;1.30;;;17.90;51.50;;;;;;4981803;28;20262;-85
2023/03/20 03:18:23;;;;;;;1.65;1.42;;;17.90;51.60;;;;;;4981493;28;20209;-85
2023/03/20 03:20:51;;;;;;;1.60;1.50;;;17.90;51.60;;;;;;4997689;28;20392;-85
2023/03/20 03:23:39;;;;;;;1.70;1.60;;;17.90;51.50;;;;;;4965779;28;20203;-85
2023/03/20 03:26:05;;;;;;;1.50;1.40;;;17.90;51.50;;;;;;4976420;28;20160;-85
2023/03/20 03:28:36;;;;;;;1.70;1.60;;;17.90;51.50;;;;;;4981204;28;20218;-85
2023/03/20 03:31:05;;;;;;;1.73;1.63;;;17.90;51.60;;;;;;4966148;28;20168;-85
2023/03/20 03:33:32;;;;;;;1.65;1.48;;;17.90;51.40;;;;;;4965549;28;20171;-85
2023/03/20 03:36:07;;;;;;;1.48;1.38;;;17.90;51.50;;;;;;4965652;28;20266;-85
2023/03/20 03:38:57;;;;;;;1.60;1.50;;;17.90;51.50;;;;;;4966366;28;20173;-85
2023/03/20 03:41:51;;;;;;;1.73;1.63;;;17.90;51.60;;;;;;4999287;28;20642;-85
2023/03/20 03:44:37;;;;;;;1.50;1.40;;;17.80;51.60;;;;;;4970082;28;20734;-85
2023/03/20 03:47:06;;;;;;;1.38;1.27;;;17.80;51.70;;;;;;4998765;28;20183;-85
2023/03/20 03:49:35;;;;;;;1.40;1.30;;;17.80;51.60;;;;;;4965549;28;20164;-84
2023/03/20 03:52:04;;;;;;;1.50;1.40;;;17.90;51.60;;;;;;4965093;28;20250;-85
2023/03/20 03:54:34;;;;;;;1.50;1.40;;;17.90;51.50;;;;;;4965006;28;20638;-85
2023/03/20 03:57:00;;;;;;;1.80;1.70;;;17.80;51.60;;;;;;4981361;28;20221;-85
2023/03/20 03:59:31;;;;;;;1.58;1.48;;;17.90;51.60;;;;;;4980534;28;20641;-85
2023/03/20 04:01:58;;;;;;;1.40;1.30;;;17.80;51.50;;;;;;4981161;28;20211;-85
2023/03/20 04:04:25;;;;;;;1.20;1.10;;;17.90;51.60;;;;;;4965065;28;20170;-85
2023/03/20 04:06:51;;;;;;;1.70;1.60;;;17.80;51.60;;;;;;4980728;28;20147;-84
2023/03/20 04:09:17;;;;;;;1.55;1.45;;;17.80;51.60;;;;;;4961297;28;20223;-85
2023/03/20 04:11:45;;;;;;;1.50;1.40;;;17.80;51.50;;;;;;4944887;28;20176;-84
2023/03/20 04:14:10;;;;;;;1.75;1.65;;;17.80;51.60;;;;;;4945272;28;20172;-84
2023/03/20 04:16:37;;;;;;;1.60;1.50;;;17.80;51.60;;;;;;4945538;28;20694;-85
2023/03/20 04:19:02;;;;;;;1.55;1.40;;;17.80;51.50;;;;;;4961050;28;20195;-85
2023/03/20 04:21:28;;;;;;;1.60;1.40;;;17.80;51.70;;;;;;4944851;28;20655;-85
2023/03/20 04:23:54;;;;;;;1.40;1.30;;;17.80;51.50;;;;;;4961106;28;20225;-85
2023/03/20 04:26:21;;;;;;;1.73;1.45;;;17.80;51.50;;;;;;4961114;28;20244;-85
2023/03/20 04:28:47;;;;;;;1.50;1.40;;;17.80;51.50;;;;;;4994811;28;20160;-85
2023/03/20 04:31:13;;;;;;;1.58;1.40;;;17.90;51.60;;;;;;4945052;28;20176;-85
2023/03/20 04:33:42;;;;;;;1.70;1.60;;;17.80;51.60;;;;;;4945702;28;20172;-85
2023/03/20 04:36:09;;;;;;;1.80;1.60;;;17.80;51.60;;;;;;4961784;28;20250;-85
2023/03/20 04:38:34;;;;;;;1.40;1.30;;;17.80;51.50;;;;;;4945723;28;20191;-85
2023/03/20 04:41:00;;;;;;;1.38;1.27;;;17.80;51.50;;;;;;4961281;28;20577;-85
2023/03/20 04:43:26;;;;;;;1.60;1.50;;;17.90;51.60;;;;;;4945474;28;20206;-85
2023/03/20 04:45:51;;;;;;;1.60;1.50;;;17.90;51.50;;;;;;4961466;28;20244;-85
2023/03/20 04:48:18;;;;;;;1.40;1.30;;;17.90;51.60;;;;;;4961952;28;20164;-85
2023/03/20 04:50:49;;;;;;;1.45;1.33;;;17.90;51.60;;;;;;4961160;28;20163;-85
2023/03/20 04:53:16;;;;;;;1.38;1.27;;;17.70;51.40;;;;;;4962025;28;20187;-85
2023/03/20 04:55:47;;;;;;;1.58;1.48;;;17.80;51.60;;;;;;4976657;28;20271;-85
2023/03/20 04:58:12;;;;;;;1.55;1.42;;;17.80;52.20;;;;;;4978850;28;20255;-85
2023/03/20 05:00:38;;;;;;;1.50;1.40;;;17.80;51.60;;;;;;4979846;28;20255;-85
2023/03/20 05:03:04;;;;;;;1.38;1.27;;;17.80;51.60;;;;;;4980300;28;20290;-85
2023/03/20 05:05:30;;;;;;;1.58;1.40;;;17.80;51.60;;;;;;4979734;28;20188;-85
2023/03/20 05:07:55;;;;;;;1.45;1.35;;;17.80;51.60;;;;;;4979766;28;20160;-84
2023/03/20 05:10:22;;;;;;;1.48;1.38;;;17.70;51.60;;;;;;4996552;28;20573;-85
2023/03/20 05:12:48;;;;;;;1.70;1.60;;;17.80;51.60;;;;;;4982933;28;20171;-85
2023/03/20 05:15:13;;;;;;;1.40;1.30;;;17.70;51.60;;;;;;4983076;28;20191;-85
2023/03/20 05:17:39;;;;;;;1.60;1.50;;;17.80;51.50;;;;;;4999044;28;20171;-84
2023/03/20 05:20:09;;;;;;;1.60;1.50;;;17.80;51.60;;;;;;4999009;28;20201;-85
2023/03/20 05:22:35;;;;;;;1.50;1.40;;;17.80;51.50;;;;;;4998905;28;20199;-85
2023/03/20 05:25:02;;;;;;;1.50;1.40;;;17.80;51.70;;;;;;4998723;28;20250;-85
2023/03/20 05:27:28;;;;;;;1.60;1.50;;;17.80;51.60;;;;;;4983662;28;20226;-85
2023/03/20 05:29:53;;;;;;;1.50;1.40;;;17.70;51.70;;;;;;4983407;28;20670;-85
2023/03/20 05:32:19;;;;;;;1.90;1.70;;;17.80;51.60;;;;;;4999526;28;20162;-85
2023/03/20 05:34:45;;;;;;;1.40;1.30;;;17.80;51.70;;;;;;4968059;28;20163;-85
2023/03/20 05:37:10;;;;;;;1.60;1.50;;;17.80;51.70;;;;;;4967128;28;20178;-85
2023/03/20 05:39:36;;;;;;;1.60;1.50;;;17.80;51.70;;;;;;5017049;28;20217;-85
2023/03/20 05:42:02;;;;;;;1.52;1.40;;;17.80;51.60;;;;;;4983186;28;20209;-85
2023/03/20 05:44:28;;;;;;;2.03;1.33;;;17.80;51.80;;;;;;4999814;28;20187;-85
2023/03/20 05:46:56;;;;;;;1.60;1.50;;;17.80;51.60;;;;;;4999390;28;20215;-85
2023/03/20 05:49:21;;;;;;;1.35;1.25;;;17.80;51.70;;;;;;4967985;28;20532;-84
2023/03/20 05:51:47;;;;;;;1.35;1.25;;;17.80;51.70;;;;;;4999239;28;20163;-85
2023/03/20 05:54:13;;;;;;;1.33;1.23;;;17.80;51.60;;;;;;4983106;28;20163;-85
2023/03/20 05:56:39;;;;;;;1.90;1.60;;;17.70;51.60;;;;;;4983321;28;20171;-85
2023/03/20 05:59:07;;;;;;;2.55;1.50;;;17.80;51.70;;;;;;4966720;28;20174;-85
2023/03/20 06:01:33;;;;;;;1.52;1.42;;;17.80;51.60;;;;;;4975671;28;20204;-84
2023/03/20 06:04:02;;;;;;;1.50;1.40;;;17.80;51.60;;;;;;4959158;28;20188;-85
2023/03/20 06:06:27;;;;;;;1.88;1.50;;;17.80;51.70;;;;;;4943254;28;20679;-86
2023/03/20 06:08:53;;;;;;;1.50;1.40;;;17.80;51.60;;;;;;4943392;28;20220;-85
2023/03/20 06:11:20;;;;;;;1.60;1.50;;;17.80;51.70;;;;;;4959328;28;20544;-85
2023/03/20 06:13:45;;;;;;;1.45;1.35;;;17.80;51.70;;;;;;4959586;28;20196;-85
2023/03/20 06:16:14;;;;;;;1.60;1.50;;;17.80;51.70;;;;;;4960587;28;20267;-86
2023/03/20 06:18:41;;;;;;;1.60;1.50;;;17.80;51.60;;;;;;4943154;28;20683;-85
2023/03/20 06:21:07;;;;;;;1.52;1.40;;;17.80;51.70;;;;;;4943665;28;20216;-85
2023/03/20 06:23:32;;;;;;;1.30;1.20;;;17.80;51.80;;;;;;4943604;28;20179;-85
2023/03/20 06:25:58;;;;;;;1.67;1.30;;;17.80;51.80;;;;;;4959122;28;20165;-84
2023/03/20 06:28:24;;;;;;;1.33;1.23;;;17.70;51.80;;;;;;4959450;28;20169;-84
2023/03/20 06:30:52;;;;;;;1.38;1.27;;;17.70;51.80;;;;;;4958618;28;20161;-84
2023/03/20 06:33:17;;;;;;;1.48;1.38;;;17.80;51.80;;;;;;4974396;28;20190;-85
2023/03/20 06:35:45;;;;;;;1.60;1.45;;;17.80;51.80;;;;;;4981040;28;20247;-84
2023/03/20 06:38:10;;;;;;;1.50;1.40;;;17.70;51.90;;;;;;4965941;28;20175;-84
2023/03/20 06:40:37;;;;;;;1.30;1.20;;;17.70;51.70;;;;;;4982893;28;20546;-85
2023/03/20 06:43:04;;;;;;;1.58;1.48;;;17.80;51.70;;;;;;4984274;28;20167;-85
2023/03/20 06:45:30;;;;;;;1.50;1.40;;;17.80;51.80;;;;;;4967407;28;20254;-85
2023/03/20 06:47:57;;;;;;;1.70;1.60;;;17.80;51.90;;;;;;4984798;28;20233;-85
2023/03/20 06:50:24;;;;;;;2.45;1.50;;;17.80;51.80;;;;;;4984280;28;20156;-85
2023/03/20 06:52:51;;;;;;;1.63;1.50;;;17.80;51.90;;;;;;4968078;28;20176;-87
2023/03/20 06:55:16;;;;;;;1.63;1.52;;;17.80;51.90;;;;;;4984624;28;20679;-86
2023/03/20 06:57:42;;;;;;;1.60;1.40;;;17.80;51.80;;;;;;4999988;28;20216;-86
2023/03/20 07:00:11;;;;;;;1.60;1.50;;;17.80;51.80;;;;;;5000019;28;20180;-86
2023/03/20 07:02:36;;;;;;;1.50;1.40;;;17.70;51.80;;;;;;4969263;28;20227;-86
2023/03/20 07:05:02;;;;;;;1.30;1.20;;;17.80;51.80;;;;;;4984128;28;20162;-86
2023/03/20 07:07:29;;;;;;;1.50;1.40;;;17.80;51.60;;;;;;4983455;28;20190;-86
2023/03/20 07:09:58;;;;;;;1.48;1.38;;;17.80;51.80;;;;;;4968982;28;20231;-85
2023/03/20 07:12:27;;;;;;;2.00;1.80;;;17.70;51.80;;;;;;4986830;28;20163;-86
2023/03/20 07:14:54;;;;;;;1.70;1.60;;;17.80;51.70;;;;;;4986773;28;20159;-85
2023/03/20 07:17:21;;;;;;;1.67;1.52;;;17.80;51.60;;;;;;5002711;28;20208;-85
2023/03/20 07:19:50;;;;;;;1.50;1.40;;;17.80;51.60;;;;;;4987460;28;20182;-85
2023/03/20 07:22:40;;;;;;;1.70;1.50;;;17.80;51.60;;;;;;4976386;28;20206;-86
2023/03/20 07:25:12;;;;;;;1.40;1.30;;;17.80;51.60;;;;;;4993702;28;20626;-88
2023/03/20 07:27:49;;;;;;;1.38;1.27;;;17.90;51.60;;;;;;4973424;28;20160;-87
2023/03/20 07:30:33;;;;;;;1.60;1.50;;;17.90;51.60;;;;;;4984898;28;20179;-86
2023/03/20 07:33:24;;;;;;;;;;;;;;;;;;;;;
2023/03/20 07:39:47;;;;;;;1.40;1.30;;;17.80;51.40;;;;;;4866704;29;20244;-87
2023/03/20 07:42:20;;;;;;;1.52;1.33;;;18.00;51.30;;;;;;4864689;29;20215;-87
2023/03/20 07:44:58;;;;;;;1.83;1.33;;;18.00;51.20;;;;;;4889336;29;20189;-86
2023/03/20 07:47:24;;;;;;;1.55;1.45;;;18.10;51.10;;;;;;4911263;29;20249;-85
2023/03/20 07:49:59;;;;;;;2.60;1.58;;;18.20;50.90;;;;;;4926514;29;20185;-86
2023/03/20 07:52:27;;;;;;;1.75;1.52;;;18.20;50.80;;;;;;4908499;29;20274;-85
2023/03/20 07:54:58;;;;;;;2.17;1.67;;;18.20;50.70;;;;;;4909281;29;20161;-85
2023/03/20 07:57:31;;;;;;;2.80;1.70;;;18.20;50.70;;;;;;4903121;29;20199;-85
2023/03/20 08:00:33;;;;;;;3.58;1.25;;;18.20;50.80;;;;;;4919632;29;20262;-84
2023/03/20 08:03:17;;;;;;;3.80;1.60;;;18.20;50.90;;;;;;4840910;29;20248;-82
2023/03/20 08:05:43;;;;;;;2.22;1.90;;;18.30;50.80;;;;;;4859378;29;20210;-83
2023/03/20 08:08:11;;;;;;;2.70;1.50;;;18.30;50.80;;;;;;4891834;29;20191;-84
2023/03/20 08:10:36;;;;;;;2.33;1.40;;;18.30;50.80;;;;;;4889497;29;20239;-84
2023/03/20 08:13:02;;;;;;;1.95;1.38;;;18.30;50.90;;;;;;4874582;29;20592;-85
2023/03/20 08:15:31;;;;;;;1.92;1.45;;;18.30;51.60;;;;;;4889778;29;20187;-82
2023/03/20 08:17:57;;;;;;;1.40;1.30;;;18.20;51.00;;;;;;4904690;29;20234;-85
2023/03/20 08:20:26;;;;;;;3.42;1.55;;;18.20;51.00;;;;;;4878385;29;20197;-84
2023/03/20 08:22:58;;;;;;;1.90;1.27;;;18.30;51.10;;;;;;4879578;29;20283;-84
2023/03/20 08:25:33;;;;;;;1.60;1.50;;;18.20;51.00;;;;;;4866373;29;20230;-84
2023/03/20 08:28:11;;;;;;;1.92;1.17;;;18.30;51.00;;;;;;4899089;29;20191;-85
2023/03/20 08:30:52;;;;;;;2.85;1.60;;;18.30;51.20;;;;;;4810638;29;20199;-85
2023/03/20 08:33:26;;;;;;;2.22;1.50;;;18.30;50.80;;;;;;5075397;23;20224;-85
2023/03/20 08:36:20;;;;;;;1.42;1.33;;;18.40;50.70;;;;;;5574642;23;20242;-85
2023/03/20 08:39:01;;;;;;;2.40;1.70;;;18.30;51.00;;;;;;5041440;23;20201;31
2023/03/20 08:42:06;;;;;;;1.40;1.30;;;18.40;50.90;;;;;;4896058;29;20345;-86
2023/03/20 08:44:34;;;;;;;2.25;1.20;;;18.40;50.80;;;;;;4912732;29;20198;-86
2023/03/20 08:47:45;;;;;;;2.40;1.70;;;18.40;50.80;;;;;;4914050;29;20281;-87
2023/03/20 08:50:27;;;;;;;2.50;1.42;;;18.50;50.60;;;;;;4908502;29;20613;-87
2023/03/20 08:52:57;;;;;;;2.63;1.42;;;18.50;50.80;;;;;;4875628;29;20184;-87
2023/03/20 08:56:24;;;;;;;4.40;1.40;;;18.50;50.80;;;;;;4893194;29;20191;-87
2023/03/20 08:58:52;;;;;;;;;;;;;;;;;;;;;
2023/03/20 09:02:15;;;;;;;2.63;1.70;;;18.60;50.60;;;;;;4818574;29;20281;-87
2023/03/20 09:05:05;;;;;;;1.45;1.35;;;18.60;50.50;;;;;;4771040;30;20543;-88
2023/03/20 09:16:08;;;;;;;;;;;;;;;;;;;;;
2023/03/20 09:22:10;;;;;;;2.28;1.38;;;18.60;50.80;;;;;;4609636;31;20231;-86
2023/03/20 09:46:53;;;;;;;2.85;1.63;;;18.70;51.50;;;;;;4519827;31;20225;-85
2023/03/20 09:50:20;;;;;;;;;;;;;;;;;;;;;
2023/03/20 09:53:10;;;;;;;2.03;1.52;;;18.80;51.50;;;;;;4512467;31;20282;-82
2023/03/20 09:55:46;;;;;;;2.03;1.10;;;18.70;51.50;;;;;;4686480;30;20610;-84
2023/03/20 09:58:19;;;;;;;3.05;1.50;;;18.60;51.70;;;;;;4721961;30;20189;-84
2023/03/20 10:00:49;;;;;;;1.92;1.70;;;18.70;51.70;;;;;;4743299;30;20251;-86
2023/03/20 10:03:55;;;;;;;2.58;1.25;;;18.60;51.90;;;;;;4775201;29;20184;-84
2023/03/20 10:06:23;;;;;;;6.22;2.03;;;18.60;51.90;;;;;;4814420;29;20310;-84
2023/03/20 10:08:53;;;;;;;3.88;1.42;;;18.60;52.20;;;;;;4818589;29;20207;-83
2023/03/20 10:11:55;;;;;;;1.65;1.50;;;18.70;52.00;;;;;;4801334;29;20201;-86
2023/03/20 10:14:51;;;;;;;2.90;1.17;;;18.70;52.10;;;;;;4836201;29;20189;-84
2023/03/20 10:17:57;;;;;;;2.28;1.60;;;18.70;52.20;;;;;;4843461;29;20200;-86
2023/03/20 10:20:34;;;;;;;3.72;1.60;;;18.70;52.20;;;;;;4907182;29;20175;-85
2023/03/20 10:23:36;;;;;;;;;;;;;;;;;;;;;
2023/03/20 10:26:45;;;;;;;2.78;1.27;;;18.80;52.00;;;;;;4905696;29;20272;-86
2023/03/20 10:29:38;;;;;;;2.85;1.50;;;18.70;52.10;;;;;;4909560;29;20183;-85
2023/03/20 10:32:26;;;;;;;1.48;1.30;;;18.70;52.20;;;;;;4911733;29;20159;-86
2023/03/20 10:34:55;;;;;;;4.40;1.60;;;18.70;52.30;;;;;;4925915;29;20219;-83
2023/03/20 10:37:38;;;;;;;3.50;1.60;;;18.60;52.40;;;;;;4926259;29;20163;-83
2023/03/20 10:40:23;;;;;;;7.30;1.60;;;18.50;52.50;;;;;;4912244;29;20227;-84
2023/03/20 10:42:48;;;;;;;2.05;1.50;;;18.60;52.60;;;;;;4911538;29;20560;-82
2023/03/20 10:45:38;;;;;;;2.00;1.50;;;18.50;52.50;;;;;;4925741;29;20207;-84
2023/03/20 10:48:35;;;;;;;1.98;1.38;;;18.60;52.50;;;;;;4890208;29;20188;-84
2023/03/20 10:51:05;;;;;;;1.88;1.30;;;18.60;52.60;;;;;;4889802;29;20176;-82
2023/03/20 10:53:31;;;;;;;1.67;1.58;;;18.60;53.30;;;;;;4889486;29;20165;-84
2023/03/20 10:56:05;;;;;;;2.20;1.80;;;18.70;52.30;;;;;;4887786;29;20255;-84
2023/03/20 10:58:36;;;;;;;2.05;1.50;;;18.70;52.10;;;;;;4859451;29;20321;-84
2023/03/20 11:01:05;;;;;;;6.20;1.60;;;18.70;52.00;;;;;;4857763;29;20306;-85
2023/03/20 11:03:33;;;;;;;1.77;1.27;;;18.90;52.10;;;;;;4871799;29;20188;-84
2023/03/20 11:06:06;;;;;;;10.15;1.98;;;18.70;52.20;;;;;;4870455;29;20261;-86
2023/03/20 11:08:40;;;;;;;2.78;1.42;;;18.70;52.10;;;;;;4865955;29;20194;-83
2023/03/20 11:11:08;;;;;;;3.40;1.48;;;18.70;52.60;;;;;;4867815;29;20268;-83
2023/03/20 11:13:40;;;;;;;1.48;1.38;;;18.70;52.80;;;;;;4867711;29;20200;-84
2023/03/20 11:16:29;;;;;;;5.68;1.60;;;18.80;53.20;;;;;;4865420;29;20269;-85
2023/03/20 11:18:55;;;;;;;2.78;1.88;;;18.70;53.70;;;;;;4874663;29;20184;-86
2023/03/20 11:21:29;;;;;;;3.28;1.52;;;18.60;53.80;;;;;;4900727;29;20293;-86
2023/03/20 11:23:54;;;;;;;6.65;1.80;;;18.70;53.20;;;;;;4899276;29;20191;-84
2023/03/20 11:26:36;;;;;;;2.42;1.60;;;18.70;53.30;;;;;;4896333;29;20164;-84
2023/03/20 11:29:08;;;;;;;5.75;1.73;;;18.70;53.10;;;;;;4897323;29;20188;-84
2023/03/20 11:31:37;;;;;;;4.10;1.83;;;18.70;53.00;;;;;;4897568;29;20191;-85
2023/03/20 11:34:25;;;;;;;3.63;1.80;;;18.70;52.90;;;;;;4891930;29;20188;-85
2023/03/20 11:36:56;;;;;;;2.40;1.60;;;18.70;52.80;;;;;;4879045;29;20161;-83
2023/03/20 11:39:31;;;;;;;4.20;1.50;;;18.70;52.90;;;;;;4882117;29;20184;-85
2023/03/20 11:42:00;;;;;;;3.00;1.63;;;18.70;52.90;;;;;;4899996;29;20209;-85
2023/03/20 11:44:32;;;;;;;2.40;1.58;;;18.70;53.00;;;;;;4886090;29;20608;-85
2023/03/20 11:47:03;;;;;;;2.13;1.60;;;18.70;53.00;;;;;;4902771;29;20182;-85
2023/03/20 11:49:34;;;;;;;2.30;1.80;;;18.60;52.90;;;;;;4903391;29;20183;-85
2023/03/20 11:52:12;;;;;;;2.90;1.80;;;18.60;52.90;;;;;;4891305;29;20175;-85
2023/03/20 11:54:41;;;;;;;2.97;1.70;;;18.70;52.80;;;;;;4909234;29;20187;-85
2023/03/20 11:57:13;;;;;;;2.47;1.98;;;18.70;52.50;;;;;;4907371;29;20160;-85
2023/03/20 11:59:38;;;;;;;2.13;1.80;;;18.70;52.50;;;;;;4907288;29;20165;-85
2023/03/20 12:02:19;;;;;;;2.78;1.92;;;18.80;52.60;;;;;;4906165;29;20270;-86
2023/03/20 12:04:47;;;;;;;4.70;1.70;;;18.70;52.50;;;;;;4908632;29;20566;-86
2023/03/20 12:07:26;;;;;;;3.15;2.22;;;18.70;52.60;;;;;;4908989;29;20586;-85
2023/03/20 12:10:03;;;;;;;3.17;1.98;;;18.70;52.30;;;;;;4903828;29;20222;-86
2023/03/20 12:12:58;;;;;;;3.20;1.73;;;18.70;52.50;;;;;;4890084;29;20190;-84
2023/03/20 12:15:30;;;;;;;3.40;1.77;;;18.70;52.60;;;;;;4904915;29;20199;-85
2023/03/20 12:18:02;;;;;;;2.58;2.10;;;18.70;52.60;;;;;;4905011;29;20178;-84
2023/03/20 12:20:35;;;;;;;3.35;2.00;;;18.70;52.60;;;;;;4886553;29;20601;-85
2023/03/20 12:23:13;;;;;;;2.78;2.17;;;18.70;52.80;;;;;;4884084;29;20306;-85
2023/03/20 12:25:55;;;;;;;2.45;2.00;;;18.70;52.70;;;;;;4888136;29;20210;-85
2023/03/20 12:28:31;;;;;;;3.08;2.22;;;18.70;52.80;;;;;;4887538;29;20257;-85
2023/03/20 12:31:12;;;;;;;2.38;2.05;;;18.70;52.90;;;;;;4892800;29;20183;-84
2023/03/20 12:33:57;;;;;;;3.80;2.13;;;18.70;52.80;;;;;;4893895;29;20201;-84
2023/03/20 12:36:33;;;;;;;2.80;2.30;;;18.70;52.70;;;;;;4896685;29;20199;-85
2023/03/20 12:39:00;;;;;;;3.75;2.17;;;18.70;52.70;;;;;;4883124;29;20183;-85
2023/03/20 12:41:29;;;;;;;2.75;2.10;;;18.70;52.80;;;;;;4913628;29;20332;-86
2023/03/20 12:44:21;;;;;;;3.13;2.13;;;18.70;52.70;;;;;;4928658;29;20174;-86
2023/03/20 12:47:24;;;;;;;2.88;2.15;;;18.70;52.80;;;;;;4928155;29;20602;-87
2023/03/20 12:50:08;;;;;;;2.55;2.10;;;18.60;53.00;;;;;;4921008;29;20181;-86
2023/03/20 12:53:10;;;;;;;2.40;2.00;;;18.60;53.10;;;;;;4925077;29;20182;-87
2023/03/20 12:55:53;;;;;;;2.47;2.00;;;18.60;53.20;;;;;;4914094;29;20170;-86
2023/03/20 12:58:38;;;;;;;3.22;2.13;;;18.70;53.10;;;;;;4911618;29;20170;-87
2023/03/20 13:01:18;;;;;;;2.35;1.98;;;18.60;53.10;;;;;;4895836;29;20170;-86
2023/03/20 13:03:58;;;;;;;3.33;2.15;;;18.70;53.00;;;;;;4926417;29;20172;-87
2023/03/20 13:06:53;;;;;;;2.08;1.88;;;18.70;53.00;;;;;;4892683;29;20170;-87
2023/03/20 13:09:44;;;;;;;2.83;2.08;;;18.70;52.90;;;;;;4912738;29;20653;-86
2023/03/20 13:12:47;;;;;;;4.80;1.85;;;18.70;53.10;;;;;;4897018;29;20200;-85
2023/03/20 13:15:53;;;;;;;2.67;1.90;;;18.70;53.00;;;;;;4908202;29;20198;-85
2023/03/20 13:18:46;;;;;;;2.65;1.92;;;18.80;53.10;;;;;;4891908;29;20219;-85
2023/03/20 13:21:15;;;;;;;2.10;1.80;;;18.70;53.00;;;;;;4910350;29;20190;-84
2023/03/20 13:23:52;;;;;;;2.35;2.00;;;18.70;53.00;;;;;;4920053;29;20191;-85
2023/03/20 13:26:33;;;;;;;2.10;1.90;;;18.70;53.10;;;;;;4907508;29;20601;-85
2023/03/20 13:29:14;;;;;;;2.17;1.75;;;18.70;53.00;;;;;;4888192;29;20183;-85
2023/03/20 13:32:14;;;;;;;2.45;2.00;;;18.80;53.00;;;;;;4888192;29;20243;-85
2023/03/20 13:34:55;;;;;;;1.92;1.73;;;18.70;53.10;;;;;;4888766;29;20164;-85
2023/03/20 13:37:27;;;;;;;2.00;1.80;;;18.70;53.20;;;;;;4889934;29;20179;-85
2023/03/20 13:40:00;;;;;;;2.20;1.70;;;18.70;53.10;;;;;;4871512;29;20228;-85
2023/03/20 13:42:29;;;;;;;2.55;1.58;;;18.60;53.10;;;;;;4871083;29;20579;-85
2023/03/20 13:44:59;;;;;;;1.92;1.63;;;18.70;53.10;;;;;;4840151;29;20629;-85
2023/03/20 13:47:29;;;;;;;2.22;1.83;;;18.70;52.80;;;;;;4854157;29;20187;-86
2023/03/20 14:57:48;;;;;;;1.85;1.40;;;18.80;52.30;;;;;;4953915;28;20248;-83
2023/03/20 15:00:26;;;;;;;1.38;1.08;;;18.80;52.30;;;;;;4926799;29;20213;-84
2023/03/20 15:02:53;;;;;;;0.90;0.90;;;18.80;51.90;;;;;;4923288;29;20347;-81
2023/03/20 15:05:24;;;;;;;1.20;1.10;;;18.80;51.80;;;;;;4925792;29;20178;-85
2023/03/20 15:07:51;;;;;;;1.55;1.10;;;18.80;51.90;;;;;;4925049;29;20166;-83
2023/03/20 15:10:43;;;;;;;1.13;1.02;;;18.80;52.00;;;;;;4923583;29;20178;-84
2023/03/20 15:13:10;;;;;;;1.08;0.98;;;18.80;51.90;;;;;;4940004;29;20661;-84
2023/03/20 15:15:38;;;;;;;1.27;0.85;;;18.80;51.90;;;;;;4906565;29;20706;-83